Track Иванова Наталья

Time Latitude Longitude Accuracy (66% radius in meters) Altitude (meters) Speed (km/hour) Bearing (degrees) Battery (%) GPS flag
04:46:27 55.996895 92.785223 0 0 0 0 1 delete
04:46:23 55.996910 92.785204 0 0 0 0 1 delete
04:45:47 55.997031 92.784976 0 0 0 0 1 delete
04:45:43 55.997081 92.784849 0 0 0 0 1 delete
04:45:25 55.997148 92.784832 0 0 0 0 1 delete
04:45:24 55.997168 92.784791 0 0 0 0 1 delete
04:45:20 55.997284 92.784495 0 0 0 0 1 delete
04:45:16 55.997383 92.784204 0 0 0 0 1 delete
04:45:09 55.997428 92.783829 0 0 0 0 1 delete
04:45:02 55.997508 92.784065 0 0 0 0 1 delete
04:44:57 55.997668 92.784230 0 0 0 0 1 delete
04:44:54 55.997784 92.784208 0 0 0 0 1 delete
04:44:53 55.997824 92.784189 0 0 0 0 1 delete
04:44:49 55.997975 92.784089 0 0 0 0 1 delete
04:44:44 55.998141 92.783826 0 0 0 0 1 delete
04:44:38 55.998309 92.783684 0 0 0 0 1 delete
04:44:37 55.998332 92.783730 0 0 0 0 1 delete
04:44:33 55.998417 92.783916 0 0 0 0 1 delete
04:44:32 55.998436 92.783959 0 0 0 0 1 delete
04:44:22 55.998584 92.784057 0 0 0 0 1 delete
04:44:16 55.998753 92.783884 0 0 0 0 1 delete
04:44:15 55.998780 92.783852 0 0 0 0 1 delete
04:44:05 55.998922 92.783696 0 0 0 0 1 delete
04:43:55 55.998895 92.783373 0 0 0 0 1 delete
04:43:47 55.998810 92.783132 0 0 0 0 1 delete
04:43:39 55.998824 92.782824 0 0 0 0 1 delete
04:43:38 55.998817 92.782775 0 0 0 0 1 delete
04:43:35 55.998783 92.782640 0 0 0 0 1 delete
04:43:29 55.998706 92.782344 0 0 0 0 1 delete
04:43:23 55.998653 92.781998 0 0 0 0 1 delete
04:43:18 55.998656 92.781675 0 0 0 0 1 delete
04:43:13 55.998621 92.781352 0 0 0 0 1 delete
04:43:12 55.998615 92.781282 0 0 0 0 1 delete
04:43:08 55.998586 92.781027 0 0 0 0 1 delete
04:43:06 55.998579 92.780884 0 0 0 0 1 delete
04:43:05 55.998578 92.780817 0 0 0 0 1 delete
04:43:01 55.998588 92.780529 0 0 0 0 1 delete
04:42:55 55.998513 92.780172 0 0 0 0 1 delete
04:42:52 55.998449 92.780046 0 0 0 0 1 delete
04:42:51 55.998433 92.780009 0 0 0 0 1 delete
04:42:46 55.998364 92.779790 0 0 0 0 1 delete
04:42:43 55.998320 92.779651 0 0 0 0 1 delete
04:42:38 55.998238 92.779442 0 0 0 0 1 delete
04:42:37 55.998223 92.779389 0 0 0 0 1 delete
04:42:27 55.998236 92.779160 0 0 0 0 1 delete
04:42:25 55.998311 92.779117 0 0 0 0 1 delete
04:42:20 55.998515 92.779003 0 0 0 0 1 delete
04:42:19 55.998557 92.778974 0 0 0 0 1 delete
04:42:15 55.998745 92.778868 0 0 0 0 1 delete
04:42:11 55.998903 92.778662 0 0 0 0 1 delete